sensor_id;sensor_type;location;lat;lon;timestamp;pressure;altitude;pressure_sealevel;temperature;humidity
13015;BME280;6573;57.696;11.950;2022-10-31T00:01:18;100489.94;;;15.00;100.00
13015;BME280;6573;57.696;11.950;2022-10-31T00:03:48;100481.94;;;15.02;100.00
13015;BME280;6573;57.696;11.950;2022-10-31T00:06:17;100488.09;;;15.02;100.00
13015;BME280;6573;57.696;11.950;2022-10-31T00:08:46;100491.56;;;15.06;100.00
13015;BME280;6573;57.696;11.950;2022-10-31T00:11:14;100490.69;;;15.05;100.00
13015;BME280;6573;57.696;11.950;2022-10-31T00:13:43;100487.97;;;15.08;100.00
13015;BME280;6573;57.696;11.950;2022-10-31T00:16:15;100480.97;;;15.04;100.00
13015;BME280;6573;57.696;11.950;2022-10-31T00:18:44;100473.91;;;15.05;100.00
13015;BME280;6573;57.696;11.950;2022-10-31T00:21:16;100466.84;;;15.05;100.00
13015;BME280;6573;57.696;11.950;2022-10-31T00:23:45;100461.53;;;15.05;100.00
13015;BME280;6573;57.696;11.950;2022-10-31T00:26:13;100474.91;;;15.01;100.00
13015;BME280;6573;57.696;11.950;2022-10-31T00:28:41;100463.44;;;15.00;100.00
13015;BME280;6573;57.696;11.950;2022-10-31T00:31:11;100465.34;;;14.95;100.00
13015;BME280;6573;57.696;11.950;2022-10-31T00:33:43;100473.31;;;14.93;100.00
13015;BME280;6573;57.696;11.950;2022-10-31T00:36:22;100463.66;;;14.91;100.00
13015;BME280;6573;57.696;11.950;2022-10-31T00:38:50;100463.59;;;14.94;100.00
13015;BME280;6573;57.696;11.950;2022-10-31T00:41:19;100468.94;;;14.91;100.00
13015;BME280;6573;57.696;11.950;2022-10-31T00:43:47;100484.00;;;14.90;100.00
13015;BME280;6573;57.696;11.950;2022-10-31T00:46:15;100470.69;;;14.92;100.00
13015;BME280;6573;57.696;11.950;2022-10-31T00:48:43;100479.53;;;14.91;100.00
13015;BME280;6573;57.696;11.950;2022-10-31T00:51:12;100481.22;;;14.95;100.00
13015;BME280;6573;57.696;11.950;2022-10-31T00:53:41;100477.75;;;14.93;100.00
13015;BME280;6573;57.696;11.950;2022-10-31T00:56:10;100477.75;;;14.93;100.00
13015;BME280;6573;57.696;11.950;2022-10-31T00:58:38;100475.19;;;14.90;100.00
13015;BME280;6573;57.696;11.950;2022-10-31T01:01:06;100468.13;;;14.89;100.00
13015;BME280;6573;57.696;11.950;2022-10-31T01:03:34;100462.88;;;14.87;100.00
13015;BME280;6573;57.696;11.950;2022-10-31T01:06:08;100455.06;;;14.83;100.00
13015;BME280;6573;57.696;11.950;2022-10-31T01:08:37;100455.97;;;14.82;100.00
13015;BME280;6573;57.696;11.950;2022-10-31T01:11:10;100465.72;;;14.80;100.00
13015;BME280;6573;57.696;11.950;2022-10-31T01:13:40;100453.50;;;14.76;100.00
13015;BME280;6573;57.696;11.950;2022-10-31T01:16:11;100453.31;;;14.82;100.00
13015;BME280;6573;57.696;11.950;2022-10-31T01:18:39;100453.31;;;14.82;100.00
13015;BME280;6573;57.696;11.950;2022-10-31T01:21:09;100445.38;;;14.82;100.00
13015;BME280;6573;57.696;11.950;2022-10-31T01:23:38;100434.06;;;14.75;100.00
13015;BME280;6573;57.696;11.950;2022-10-31T01:26:12;100455.22;;;14.77;100.00
13015;BME280;6573;57.696;11.950;2022-10-31T01:28:44;100454.44;;;14.73;100.00
13015;BME280;6573;57.696;11.950;2022-10-31T01:31:14;100435.78;;;14.76;100.00
13015;BME280;6573;57.696;11.950;2022-10-31T01:33:42;100449.97;;;14.74;100.00
13015;BME280;6573;57.696;11.950;2022-10-31T01:36:13;100442.97;;;14.73;100.00
13015;BME280;6573;57.696;11.950;2022-10-31T01:38:41;100437.69;;;14.73;100.00
13015;BME280;6573;57.696;11.950;2022-10-31T01:41:12;100430.63;;;14.72;100.00
13015;BME280;6573;57.696;11.950;2022-10-31T01:43:42;100440.31;;;14.73;100.00
13015;BME280;6573;57.696;11.950;2022-10-31T01:46:11;100442.97;;;14.73;100.00
13015;BME280;6573;57.696;11.950;2022-10-31T01:48:40;100435.03;;;14.71;100.00
13015;BME280;6573;57.696;11.950;2022-10-31T01:51:11;100434.91;;;14.77;100.00
13015;BME280;6573;57.696;11.950;2022-10-31T01:53:41;100442.78;;;14.79;100.00
13015;BME280;6573;57.696;11.950;2022-10-31T01:56:13;100446.19;;;14.84;100.00
13015;BME280;6573;57.696;11.950;2022-10-31T01:58:44;100442.66;;;14.85;100.00
13015;BME280;6573;57.696;11.950;2022-10-31T02:01:14;100435.59;;;14.84;100.00
13015;BME280;6573;57.696;11.950;2022-10-31T02:03:45;100424.25;;;14.79;100.00
13015;BME280;6573;57.696;11.950;2022-10-31T02:06:21;100439.06;;;14.86;100.00
13015;BME280;6573;57.696;11.950;2022-10-31T02:08:55;100462.88;;;14.87;100.00
13015;BME280;6573;57.696;11.950;2022-10-31T02:11:27;100440.25;;;14.76;100.00
13015;BME280;6573;57.696;11.950;2022-10-31T02:13:56;100455.06;;;14.83;100.00
13015;BME280;6573;57.696;11.950;2022-10-31T02:16:26;100458.59;;;14.82;100.00
13015;BME280;6573;57.696;11.950;2022-10-31T02:18:55;100464.97;;;14.75;100.00
13015;BME280;6573;57.696;11.950;2022-10-31T02:21:32;100487.78;;;14.80;100.00
13015;BME280;6573;57.696;11.950;2022-10-31T02:24:39;100486.84;;;14.83;100.00
13015;BME280;6573;57.696;11.950;2022-10-31T02:27:24;100472.53;;;14.90;100.00
13015;BME280;6573;57.696;11.950;2022-10-31T02:30:10;100477.13;;;14.83;100.00
13015;BME280;6573;57.696;11.950;2022-10-31T02:32:50;100468.44;;;14.78;100.00
13015;BME280;6573;57.696;11.950;2022-10-31T02:35:39;100473.78;;;14.75;100.00
13015;BME280;6573;57.696;11.950;2022-10-31T02:38:14;100472.78;;;14.81;100.00
13015;BME280;6573;57.696;11.950;2022-10-31T02:40:52;100488.75;;;14.78;100.00
13015;BME280;6573;57.696;11.950;2022-10-31T02:43:26;100487.84;;;14.77;100.00
13015;BME280;6573;57.696;11.950;2022-10-31T02:45:58;100502.81;;;14.80;100.00
13015;BME280;6573;57.696;11.950;2022-10-31T02:48:33;100478.22;;;14.75;100.00
13015;BME280;6573;57.696;11.950;2022-10-31T02:51:04;100488.56;;;14.84;100.00
13015;BME280;6573;57.696;11.950;2022-10-31T02:53:33;100486.84;;;14.83;100.00
13015;BME280;6573;57.696;11.950;2022-10-31T02:56:04;100496.69;;;14.78;100.00
13015;BME280;6573;57.696;11.950;2022-10-31T02:58:36;100493.97;;;14.81;100.00
13015;BME280;6573;57.696;11.950;2022-10-31T03:01:32;100476.31;;;14.80;100.00
13015;BME280;6573;57.696;11.950;2022-10-31T03:04:19;100464.09;;;14.76;100.00
13015;BME280;6573;57.696;11.950;2022-10-31T03:06:57;100465.78;;;14.77;100.00
13015;BME280;6573;57.696;11.950;2022-10-31T03:09:33;100471.09;;;14.77;100.00
13015;BME280;6573;57.696;11.950;2022-10-31T03:12:07;100462.25;;;14.78;100.00
13015;BME280;6573;57.696;11.950;2022-10-31T03:14:41;100472.84;;;14.78;100.00
13015;BME280;6573;57.696;11.950;2022-10-31T03:17:15;100469.59;;;14.67;100.00
13015;BME280;6573;57.696;11.950;2022-10-31T03:19:49;100482.69;;;14.71;100.00
13015;BME280;6573;57.696;11.950;2022-10-31T03:22:23;100488.88;;;14.72;100.00
13015;BME280;6573;57.696;11.950;2022-10-31T03:24:55;100492.44;;;14.71;100.00
13015;BME280;6573;57.696;11.950;2022-10-31T03:27:26;100501.22;;;14.73;100.00
13015;BME280;6573;57.696;11.950;2022-10-31T03:30:01;100512.69;;;14.73;100.00
13015;BME280;6573;57.696;11.950;2022-10-31T03:32:34;100515.41;;;14.69;100.00
13015;BME280;6573;57.696;11.950;2022-10-31T03:35:07;100510.97;;;14.71;100.00
13015;BME280;6573;57.696;11.950;2022-10-31T03:37:38;100506.50;;;14.73;100.00
13015;BME280;6573;57.696;11.950;2022-10-31T03:40:09;100505.53;;;14.77;100.00
13015;BME280;6573;57.696;11.950;2022-10-31T03:42:40;100520.66;;;14.72;100.00
13015;BME280;6573;57.696;11.950;2022-10-31T03:45:12;100510.13;;;14.69;100.00
13015;BME280;6573;57.696;11.950;2022-10-31T03:47:43;100518.94;;;14.71;100.00
13015;BME280;6573;57.696;11.950;2022-10-31T03:50:15;100516.34;;;14.68;100.00
13015;BME280;6573;57.696;11.950;2022-10-31T03:52:47;100503.03;;;14.71;100.00
13015;BME280;6573;57.696;11.950;2022-10-31T03:55:19;100501.22;;;14.73;100.00
13015;BME280;6573;57.696;11.950;2022-10-31T03:57:51;100490.38;;;14.82;100.00
13015;BME280;6573;57.696;11.950;2022-10-31T04:00:22;100507.16;;;14.82;100.00
13015;BME280;6573;57.696;11.950;2022-10-31T04:02:55;100511.63;;;14.79;100.00
13015;BME280;6573;57.696;11.950;2022-10-31T04:05:29;100499.41;;;14.75;100.00
13015;BME280;6573;57.696;11.950;2022-10-31T04:08:00;100490.63;;;14.73;100.00
13015;BME280;6573;57.696;11.950;2022-10-31T04:10:31;100488.88;;;14.72;100.00
13015;BME280;6573;57.696;11.950;2022-10-31T04:13:03;100485.41;;;14.70;100.00
13015;BME280;6573;57.696;11.950;2022-10-31T04:15:35;100491.56;;;14.70;100.00
13015;BME280;6573;57.696;11.950;2022-10-31T04:18:05;100496.06;;;14.67;100.00
13015;BME280;6573;57.696;11.950;2022-10-31T04:20:36;100492.53;;;14.68;100.00
13015;BME280;6573;57.696;11.950;2022-10-31T04:23:11;100498.75;;;14.65;100.00
13015;BME280;6573;57.696;11.950;2022-10-31T04:25:43;100498.72;;;14.67;100.00
13015;BME280;6573;57.696;11.950;2022-10-31T04:28:11;100496.06;;;14.67;100.00
13015;BME280;6573;57.696;11.950;2022-10-31T04:30:40;100492.53;;;14.68;100.00
13015;BME280;6573;57.696;11.950;2022-10-31T04:33:08;100489.03;;;14.66;100.00
13015;BME280;6573;57.696;11.950;2022-10-31T04:35:41;100484.69;;;14.63;100.00
13015;BME280;6573;57.696;11.950;2022-10-31T04:38:09;100494.34;;;14.66;100.00
13015;BME280;6573;57.696;11.950;2022-10-31T04:40:37;100499.63;;;14.66;100.00
13015;BME280;6573;57.696;11.950;2022-10-31T04:43:06;100503.19;;;14.65;100.00
13015;BME280;6573;57.696;11.950;2022-10-31T04:45:35;100500.53;;;14.65;100.00
13015;BME280;6573;57.696;11.950;2022-10-31T04:48:04;100501.34;;;14.67;100.00
13015;BME280;6573;57.696;11.950;2022-10-31T04:50:33;100494.41;;;14.63;100.00
13015;BME280;6573;57.696;11.950;2022-10-31T04:53:02;100506.72;;;14.64;100.00
13015;BME280;6573;57.696;11.950;2022-10-31T04:55:30;100504.06;;;14.64;100.00
13015;BME280;6573;57.696;11.950;2022-10-31T04:57:59;100506.66;;;14.67;100.00
13015;BME280;6573;57.696;11.950;2022-10-31T05:00:28;100510.13;;;14.69;100.00
13015;BME280;6573;57.696;11.950;2022-10-31T05:02:57;100511.94;;;14.67;100.00
13015;BME280;6573;57.696;11.950;2022-10-31T05:05:28;100517.25;;;14.67;100.00
13015;BME280;6573;57.696;11.950;2022-10-31T05:07:57;100515.41;;;14.69;100.00
13015;BME280;6573;57.696;11.950;2022-10-31T05:10:28;100515.41;;;14.69;100.00
13015;BME280;6573;57.696;11.950;2022-10-31T05:12:58;100497.94;;;14.62;100.00
13015;BME280;6573;57.696;11.950;2022-10-31T05:15:28;100514.59;;;14.67;100.00
13015;BME280;6573;57.696;11.950;2022-10-31T05:17:57;100518.94;;;14.71;100.00
13015;BME280;6573;57.696;11.950;2022-10-31T05:20:28;100516.28;;;14.69;100.00
13015;BME280;6573;57.696;11.950;2022-10-31T05:22:58;100511.00;;;14.69;100.00
13015;BME280;6573;57.696;11.950;2022-10-31T05:25:28;100518.94;;;14.69;100.00
13015;BME280;6573;57.696;11.950;2022-10-31T05:27:57;100515.41;;;14.70;100.00
13015;BME280;6573;57.696;11.950;2022-10-31T05:30:28;100516.34;;;14.68;100.00
13015;BME280;6573;57.696;11.950;2022-10-31T05:32:57;100511.88;;;14.70;100.00
13015;BME280;6573;57.696;11.950;2022-10-31T05:35:27;100524.34;;;14.65;100.00
13015;BME280;6573;57.696;11.950;2022-10-31T05:37:56;100522.59;;;14.64;100.00
13015;BME280;6573;57.696;11.950;2022-10-31T05:40:26;100524.41;;;14.62;100.00
13015;BME280;6573;57.696;11.950;2022-10-31T05:42:56;100512.13;;;14.61;100.00
13015;BME280;6573;57.696;11.950;2022-10-31T05:45:27;100522.75;;;14.58;100.00
13015;BME280;6573;57.696;11.950;2022-10-31T05:47:56;100521.00;;;14.57;100.00
13015;BME280;6573;57.696;11.950;2022-10-31T05:50:27;100527.19;;;14.57;100.00
13015;BME280;6573;57.696;11.950;2022-10-31T05:52:56;100520.00;;;14.62;100.00
13015;BME280;6573;57.696;11.950;2022-10-31T05:55:25;100518.19;;;14.64;100.00
13015;BME280;6573;57.696;11.950;2022-10-31T05:57:53;100506.81;;;14.61;100.00
13015;BME280;6573;57.696;11.950;2022-10-31T06:00:24;100511.88;;;14.70;100.00
13015;BME280;6573;57.696;11.950;2022-10-31T06:02:58;100520.81;;;14.66;100.00
13015;BME280;6573;57.696;11.950;2022-10-31T06:05:27;100522.53;;;14.67;100.00
13015;BME280;6573;57.696;11.950;2022-10-31T06:07:55;100519.94;;;14.65;100.00
13015;BME280;6573;57.696;11.950;2022-10-31T06:10:25;100514.66;;;14.64;100.00
13015;BME280;6573;57.696;11.950;2022-10-31T06:12:53;100533.69;;;14.79;100.00
13015;BME280;6573;57.696;11.950;2022-10-31T06:15:21;100520.44;;;14.81;100.00
13015;BME280;6573;57.696;11.950;2022-10-31T06:18:02;100520.50;;;14.78;100.00
13015;BME280;6573;57.696;11.950;2022-10-31T06:20:32;100530.19;;;14.79;100.00
13015;BME280;6573;57.696;11.950;2022-10-31T06:23:01;100527.63;;;14.76;100.00
13015;BME280;6573;57.696;11.950;2022-10-31T06:25:30;100527.69;;;14.73;100.00
13015;BME280;6573;57.696;11.950;2022-10-31T06:27:59;100526.56;;;14.83;100.00
13015;BME280;6573;57.696;11.950;2022-10-31T06:30:27;100534.41;;;14.86;100.00
13015;BME280;6573;57.696;11.950;2022-10-31T06:33:03;100530.22;;;14.77;100.00
13015;BME280;6573;57.696;11.950;2022-10-31T06:35:31;100545.00;;;14.86;100.00
13015;BME280;6573;57.696;11.950;2022-10-31T06:37:59;100550.28;;;14.86;100.00
13015;BME280;6573;57.696;11.950;2022-10-31T06:40:28;100552.00;;;14.90;100.00
13015;BME280;6573;57.696;11.950;2022-10-31T06:42:57;100562.66;;;14.87;100.00
13015;BME280;6573;57.696;11.950;2022-10-31T06:45:26;100559.16;;;14.85;100.00
13015;BME280;6573;57.696;11.950;2022-10-31T06:47:55;100550.41;;;14.83;100.00
13015;BME280;6573;57.696;11.950;2022-10-31T06:50:45;100566.19;;;14.86;100.00
13015;BME280;6573;57.696;11.950;2022-10-31T06:53:14;100559.94;;;14.88;100.00
13015;BME280;6573;57.696;11.950;2022-10-31T06:55:42;100561.66;;;14.91;100.00
13015;BME280;6573;57.696;11.950;2022-10-31T06:58:11;100570.53;;;14.88;100.00
13015;BME280;6573;57.696;11.950;2022-10-31T07:00:39;100564.41;;;14.88;100.00
13015;BME280;6573;57.696;11.950;2022-10-31T07:03:10;100576.94;;;14.80;100.00
13015;BME280;6573;57.696;11.950;2022-10-31T07:05:39;100575.34;;;14.73;100.00
13015;BME280;6573;57.696;11.950;2022-10-31T07:08:11;100579.06;;;14.66;100.00
13015;BME280;6573;57.696;11.950;2022-10-31T07:10:40;100579.06;;;14.66;100.00
13015;BME280;6573;57.696;11.950;2022-10-31T07:13:11;100580.00;;;14.62;100.00
13015;BME280;6573;57.696;11.950;2022-10-31T07:15:41;100591.59;;;14.58;100.00
13015;BME280;6573;57.696;11.950;2022-10-31T07:18:11;100591.53;;;14.61;100.00
13015;BME280;6573;57.696;11.950;2022-10-31T07:20:39;100592.50;;;14.57;100.00
13015;BME280;6573;57.696;11.950;2022-10-31T07:23:10;100588.19;;;14.53;100.00
13015;BME280;6573;57.696;11.950;2022-10-31T07:25:39;100588.06;;;14.57;100.00
13015;BME280;6573;57.696;11.950;2022-10-31T07:28:07;100590.72;;;14.57;100.00
13015;BME280;6573;57.696;11.950;2022-10-31T07:30:36;100591.59;;;14.56;100.00
13015;BME280;6573;57.696;11.950;2022-10-31T07:33:05;100609.00;;;14.68;100.00
13015;BME280;6573;57.696;11.950;2022-10-31T07:35:34;100611.63;;;14.69;100.00
13015;BME280;6573;57.696;11.950;2022-10-31T07:38:11;100614.25;;;14.71;100.00
13015;BME280;6573;57.696;11.950;2022-10-31T07:40:40;100617.78;;;14.70;100.00
13015;BME280;6573;57.696;11.950;2022-10-31T07:43:10;100612.56;;;14.67;100.00
13015;BME280;6573;57.696;11.950;2022-10-31T07:45:40;100617.84;;;14.67;100.00
13015;BME280;6573;57.696;11.950;2022-10-31T07:48:09;100618.13;;;14.55;100.00
13015;BME280;6573;57.696;11.950;2022-10-31T07:50:39;100621.47;;;14.63;100.00
13015;BME280;6573;57.696;11.950;2022-10-31T07:53:10;100616.59;;;14.45;100.00
13015;BME280;6573;57.696;11.950;2022-10-31T07:55:39;100631.38;;;14.55;100.00
13015;BME280;6573;57.696;11.950;2022-10-31T07:58:09;100633.13;;;14.56;100.00
13015;BME280;6573;57.696;11.950;2022-10-31T08:00:38;100628.88;;;14.49;100.00
13015;BME280;6573;57.696;11.950;2022-10-31T08:03:09;100641.19;;;14.50;100.00
13015;BME280;6573;57.696;11.950;2022-10-31T08:05:38;100628.88;;;14.49;100.00
13015;BME280;6573;57.696;11.950;2022-10-31T08:08:08;100620.00;;;14.50;100.00
13015;BME280;6573;57.696;11.950;2022-10-31T08:10:38;100640.56;;;14.37;100.00
13015;BME280;6573;57.696;11.950;2022-10-31T08:13:09;100634.28;;;14.43;100.00
13015;BME280;6573;57.696;11.950;2022-10-31T08:15:38;100628.88;;;14.47;100.00
13015;BME280;6573;57.696;11.950;2022-10-31T08:18:11;100626.22;;;14.49;100.00
13015;BME280;6573;57.696;11.950;2022-10-31T08:20:41;100632.25;;;14.54;100.00
13015;BME280;6573;57.696;11.950;2022-10-31T08:23:12;100642.13;;;14.47;100.00
13015;BME280;6573;57.696;11.950;2022-10-31T08:25:47;100641.22;;;14.47;100.00
13015;BME280;6573;57.696;11.950;2022-10-31T08:28:16;100625.28;;;14.50;100.00
13015;BME280;6573;57.696;11.950;2022-10-31T08:30:47;100630.47;;;14.56;100.00
13015;BME280;6573;57.696;11.950;2022-10-31T08:33:21;100642.78;;;14.57;100.00
13015;BME280;6573;57.696;11.950;2022-10-31T08:35:58;100624.16;;;14.61;100.00
13015;BME280;6573;57.696;11.950;2022-10-31T08:38:44;100607.47;;;14.58;100.00
13015;BME280;6573;57.696;11.950;2022-10-31T08:41:36;100627.38;;;14.74;100.00
13015;BME280;6573;57.696;11.950;2022-10-31T08:44:13;100629.03;;;14.81;100.00
13015;BME280;6573;57.696;11.950;2022-10-31T08:46:46;100627.97;;;14.88;100.00
13015;BME280;6573;57.696;11.950;2022-10-31T08:49:23;100629.84;;;14.83;100.00
13015;BME280;6573;57.696;11.950;2022-10-31T08:52:02;100626.16;;;14.90;100.00
13015;BME280;6573;57.696;11.950;2022-10-31T08:54:31;100634.69;;;15.01;100.00
13015;BME280;6573;57.696;11.950;2022-10-31T08:57:09;100623.25;;;15.01;100.00
13015;BME280;6573;57.696;11.950;2022-10-31T08:59:50;100648.78;;;15.03;100.00
13015;BME280;6573;57.696;11.950;2022-10-31T09:02:29;100634.22;;;14.84;100.00
13015;BME280;6573;57.696;11.950;2022-10-31T09:04:59;100650.81;;;14.92;100.00
13015;BME280;6573;57.696;11.950;2022-10-31T09:07:33;100643.69;;;14.94;100.00
13015;BME280;6573;57.696;11.950;2022-10-31T09:10:15;100649.06;;;14.91;100.00
13015;BME280;6573;57.696;11.950;2022-10-31T09:13:01;100645.63;;;14.86;100.00
13015;BME280;6573;57.696;11.950;2022-10-31T09:15:39;100651.03;;;14.83;100.00
13015;BME280;6573;57.696;11.950;2022-10-31T09:18:13;100657.75;;;14.96;100.00
13015;BME280;6573;57.696;11.950;2022-10-31T09:20:48;100661.41;;;14.92;100.00
13015;BME280;6573;57.696;11.950;2022-10-31T09:23:21;100661.41;;;14.92;100.00
13015;BME280;6573;57.696;11.950;2022-10-31T09:25:54;100665.75;;;14.95;100.00
13015;BME280;6573;57.696;11.950;2022-10-31T09:28:24;100661.41;;;14.92;100.00
13015;BME280;6573;57.696;11.950;2022-10-31T09:30:53;100650.94;;;14.86;100.00
13015;BME280;6573;57.696;11.950;2022-10-31T09:33:22;100672.06;;;14.89;100.00
13015;BME280;6573;57.696;11.950;2022-10-31T09:35:51;100677.34;;;14.89;100.00
13015;BME280;6573;57.696;11.950;2022-10-31T09:38:20;100674.03;;;14.81;100.00
13015;BME280;6573;57.696;11.950;2022-10-31T09:41:00;100673.81;;;14.90;100.00
13015;BME280;6573;57.696;11.950;2022-10-31T09:43:36;100677.41;;;14.86;100.00
13015;BME280;6573;57.696;11.950;2022-10-31T09:46:11;100677.53;;;15.20;100.00
13015;BME280;6573;57.696;11.950;2022-10-31T09:48:59;100686.19;;;15.26;100.00
13015;BME280;6573;57.696;11.950;2022-10-31T09:51:33;100685.94;;;15.00;100.00
13015;BME280;6573;57.696;11.950;2022-10-31T09:54:05;100687.84;;;14.95;100.00
13015;BME280;6573;57.696;11.950;2022-10-31T09:56:48;100700.44;;;14.84;100.00
13015;BME280;6573;57.696;11.950;2022-10-31T09:59:25;100702.19;;;14.85;100.00
13015;BME280;6573;57.696;11.950;2022-10-31T10:02:02;100692.47;;;14.85;100.00
13015;BME280;6573;57.696;11.950;2022-10-31T10:04:54;100699.31;;;14.94;100.00
13015;BME280;6573;57.696;11.950;2022-10-31T10:07:38;100693.13;;;14.95;100.00
13015;BME280;6573;57.696;11.950;2022-10-31T10:10:30;100699.22;;;14.99;100.00
13015;BME280;6573;57.696;11.950;2022-10-31T10:16:31;100696.59;;;14.97;100.00
13015;BME280;6573;57.696;11.950;2022-10-31T10:19:25;100700.09;;;14.99;100.00
13015;BME280;6573;57.696;11.950;2022-10-31T10:22:15;100698.28;;;15.01;100.00
13015;BME280;6573;57.696;11.950;2022-10-31T10:25:12;100689.06;;;15.17;100.00
13015;BME280;6573;57.696;11.950;2022-10-31T10:27:54;100690.72;;;15.21;100.00
13015;BME280;6573;57.696;11.950;2022-10-31T10:30:30;100681.72;;;15.28;100.00
13015;BME280;6573;57.696;11.950;2022-10-31T10:33:07;100683.53;;;15.26;100.00
13015;BME280;6573;57.696;11.950;2022-10-31T10:35:40;100684.34;;;15.30;100.00
13015;BME280;6573;57.696;11.950;2022-10-31T10:38:16;100686.19;;;15.26;100.00
13015;BME280;6573;57.696;11.950;2022-10-31T10:40:47;100691.31;;;15.34;100.00
13015;BME280;6573;57.696;11.950;2022-10-31T10:43:22;100679.63;;;15.42;100.00
13015;BME280;6573;57.696;11.950;2022-10-31T10:45:59;100695.53;;;15.42;100.00
13015;BME280;6573;57.696;11.950;2022-10-31T10:48:53;100697.34;;;15.40;100.00
13015;BME280;6573;57.696;11.950;2022-10-31T10:51:28;100687.53;;;15.45;100.00
13015;BME280;6573;57.696;11.950;2022-10-31T10:54:49;100696.13;;;15.55;100.00
13015;BME280;6573;57.696;11.950;2022-10-31T10:57:33;100696.84;;;15.62;100.00
13015;BME280;6573;57.696;11.950;2022-10-31T11:00:16;100690.09;;;15.48;100.00
13015;BME280;6573;57.696;11.950;2022-10-31T11:02:48;100709.47;;;15.50;100.00
13015;BME280;6573;57.696;11.950;2022-10-31T11:05:33;100712.19;;;15.49;100.00
13015;BME280;6573;57.696;11.950;2022-10-31T11:08:02;100714.50;;;15.63;100.00
13015;BME280;6573;57.696;11.950;2022-10-31T11:10:31;100716.31;;;15.61;100.00
13015;BME280;6573;57.696;11.950;2022-10-31T11:13:06;100720.03;;;15.53;100.00
13015;BME280;6573;57.696;11.950;2022-10-31T11:15:53;100729.75;;;15.53;100.00
13015;BME280;6573;57.696;11.950;2022-10-31T11:18:25;100728.72;;;15.59;100.00
13015;BME280;6573;57.696;11.950;2022-10-31T11:20:56;100737.63;;;15.58;100.00
13015;BME280;6573;57.696;11.950;2022-10-31T11:23:26;100731.06;;;15.71;100.00
13015;BME280;6573;57.696;11.950;2022-10-31T11:25:57;100723.88;;;15.76;100.00
13015;BME280;6573;57.696;11.950;2022-10-31T11:28:28;100730.03;;;15.78;100.00
13015;BME280;6573;57.696;11.950;2022-10-31T11:30:59;100733.41;;;15.83;100.00
13015;BME280;6573;57.696;11.950;2022-10-31T11:33:35;100740.84;;;15.69;100.00
13015;BME280;6573;57.696;11.950;2022-10-31T11:36:15;100758.91;;;15.54;100.00
13015;BME280;6573;57.696;11.950;2022-10-31T11:38:44;100753.06;;;15.76;100.00
13015;BME280;6573;57.696;11.950;2022-10-31T11:41:14;100749.44;;;15.80;100.00
13015;BME280;6573;57.696;11.950;2022-10-31T11:43:48;100756.47;;;15.81;100.00
13015;BME280;6573;57.696;11.950;2022-10-31T11:46:20;100767.00;;;15.84;100.00
13015;BME280;6573;57.696;11.950;2022-10-31T11:48:52;100775.84;;;15.83;100.00
13015;BME280;6573;57.696;11.950;2022-10-31T11:51:25;100773.97;;;15.88;100.00
13015;BME280;6573;57.696;11.950;2022-10-31T11:53:57;100779.38;;;15.85;100.00
13015;BME280;6573;57.696;11.950;2022-10-31T11:56:38;100780.50;;;15.75;100.00
13015;BME280;6573;57.696;11.950;2022-10-31T11:59:23;100774.38;;;15.73;100.00
13015;BME280;6573;57.696;11.950;2022-10-31T12:01:54;100783.91;;;15.80;100.00
13015;BME280;6573;57.696;11.950;2022-10-31T12:04:33;100784.03;;;15.75;100.00
13015;BME280;6573;57.696;11.950;2022-10-31T12:07:04;100792.66;;;15.83;100.00
13015;BME280;6573;57.696;11.950;2022-10-31T12:09:34;100796.66;;;15.64;100.00
13015;BME280;6573;57.696;11.950;2022-10-31T12:12:33;100808.44;;;15.52;100.00
13015;BME280;6573;57.696;11.950;2022-10-31T12:15:25;100808.22;;;15.62;100.00
13015;BME280;6573;57.696;11.950;2022-10-31T12:18:12;100791.81;;;15.81;100.00
13015;BME280;6573;57.696;11.950;2022-10-31T12:20:55;100790.19;;;15.76;100.00
13015;BME280;6573;57.696;11.950;2022-10-31T12:23:34;100798.59;;;15.93;100.00
13015;BME280;6573;57.696;11.950;2022-10-31T12:26:12;100810.13;;;15.92;100.00
13015;BME280;6573;57.696;11.950;2022-10-31T12:29:14;100806.59;;;15.91;100.00
13015;BME280;6573;57.696;11.950;2022-10-31T12:31:53;100809.38;;;15.87;100.00
13015;BME280;6573;57.696;11.950;2022-10-31T12:37:33;100804.44;;;15.72;100.00
13015;BME280;6573;57.696;11.950;2022-10-31T12:40:24;100807.91;;;15.74;100.00
13015;BME280;6573;57.696;11.950;2022-10-31T12:43:05;100818.81;;;15.62;100.00
13015;BME280;6573;57.696;11.950;2022-10-31T12:45:47;100826.81;;;15.60;100.00
13015;BME280;6573;57.696;11.950;2022-10-31T12:48:34;100808.16;;;15.65;100.00
13015;BME280;6573;57.696;11.950;2022-10-31T12:51:14;100820.22;;;15.78;100.00
13015;BME280;6573;57.696;11.950;2022-10-31T12:53:56;100821.00;;;15.81;100.00
13015;BME280;6573;57.696;11.950;2022-10-31T12:56:42;100825.72;;;15.69;100.00
13015;BME280;6573;57.696;11.950;2022-10-31T12:59:19;100832.97;;;15.61;100.00
13015;BME280;6573;57.696;11.950;2022-10-31T13:01:52;100840.16;;;15.55;100.00
13015;BME280;6573;57.696;11.950;2022-10-31T13:04:33;100837.78;;;15.45;100.00
13015;BME280;6573;57.696;11.950;2022-10-31T13:07:05;100844.00;;;15.42;100.00
13015;BME280;6573;57.696;11.950;2022-10-31T13:09:43;100840.25;;;15.52;100.00
13015;BME280;6573;57.696;11.950;2022-10-31T13:12:16;100843.81;;;15.51;100.00
13015;BME280;6573;57.696;11.950;2022-10-31T13:14:48;100847.34;;;15.50;100.00
13015;BME280;6573;57.696;11.950;2022-10-31T13:17:24;100848.38;;;15.43;100.00
13015;BME280;6573;57.696;11.950;2022-10-31T13:20:13;100849.28;;;15.42;100.00